Albany (ALB/KALB)

Map

Destinations

Information

Location
Albany, NY
Local Time
04:10 / 4:10 am
GMT Time
08:10 / 8:10 am
Gates
A4
No FAA reported delays
METAR KALB 270751Z 35003KT 10SM FEW001 SCT012 OVC033 12/11 A2984 RMK AO2 DZE12 SLP106 P0000 T01220106
TAF KALB 270520Z 2706/2806 32004KT P6SM OVC025 TEMPO 2706/2710 -DZ BKN005 FM271200 34004KT P6SM SCT035 BKN060 FM271700 VRB03KT P6SM SCT080 FM280100 VRB03KT P6SM BKN070